Time;durP1;ratioP1;P1;durP2;ratioP2;P2;SDS_P1;SDS_P2;PMS_P1;PMS_P2;Temp;Humidity;BMP_temperature;BMP_pressure;BME280_temperature;BME280_humidity;BME280_pressure;Samples;Min_cycle;Max_cycle;Signal;HPM_P1;HPM_P2
2023/07/05 00:00:24;;;;;;;4.97;4.47;;;;;;;16.29;83.47;100261.06;4995966;28;20818;-83
2023/07/05 00:02:51;;;;;;;6.33;3.90;;;;;;;16.30;83.21;100256.56;5006522;28;20210;-82
2023/07/05 00:05:18;;;;;;;8.43;4.10;;;;;;;16.30;82.85;100252.00;5006086;28;20245;-82
2023/07/05 00:07:47;;;;;;;6.10;4.40;;;;;;;16.29;82.65;100253.00;5012016;28;20219;-83
2023/07/05 00:10:15;;;;;;;7.03;4.40;;;;;;;16.30;82.75;100241.25;5010054;28;20211;-83
2023/07/05 00:12:41;;;;;;;8.47;4.47;;;;;;;16.30;82.69;100237.75;4993080;28;20318;-82
2023/07/05 00:15:08;;;;;;;6.57;4.33;;;;;;;16.31;82.43;100231.34;4997593;28;20228;-84
2023/07/05 00:17:36;;;;;;;7.70;4.57;;;;;;;16.32;82.28;100222.28;5009333;28;20206;-82
2023/07/05 00:20:05;;;;;;;6.90;4.17;;;;;;;16.33;82.19;100210.56;5009262;28;20227;-82
2023/07/05 00:22:31;;;;;;;6.40;4.30;;;;;;;16.33;82.09;100208.72;5005102;28;20248;-83
2023/07/05 00:25:01;;;;;;;6.80;4.00;;;;;;;16.32;82.08;100198.09;5006636;28;20589;-82
2023/07/05 00:27:27;;;;;;;6.37;4.20;;;;;;;16.31;82.04;100199.94;5004359;28;20214;-82
2023/07/05 00:29:54;;;;;;;6.03;4.33;;;;;;;16.33;82.11;100191.75;5001902;28;20208;-83
2023/07/05 00:32:20;;;;;;;9.20;4.53;;;;;;;16.31;82.19;100208.00;5008451;28;20225;-82
2023/07/05 00:34:47;;;;;;;6.27;3.97;;;;;;;16.31;82.50;100202.63;5008470;28;20224;-82
2023/07/05 00:37:16;;;;;;;5.97;4.57;;;;;;;16.34;82.79;100190.75;5009483;28;20230;-82
2023/07/05 00:39:43;;;;;;;9.83;4.73;;;;;;;16.32;82.38;100187.34;5004792;28;20209;-82
2023/07/05 00:42:10;;;;;;;8.23;4.73;;;;;;;16.31;82.77;100182.97;5010090;28;20206;-82
2023/07/05 00:44:37;;;;;;;7.80;4.50;;;;;;;16.30;83.06;100178.63;5008085;28;20619;-83
2023/07/05 00:47:09;;;;;;;6.13;5.10;;;;;;;16.30;83.47;100179.44;5009779;28;20217;-82
2023/07/05 00:49:37;;;;;;;7.93;4.90;;;;;;;16.31;83.83;100167.69;4999183;28;20292;-82
2023/07/05 00:52:08;;;;;;;8.53;5.23;;;;;;;16.30;83.82;100176.75;5007012;28;20749;-83
2023/07/05 00:54:41;;;;;;;6.03;4.43;;;;;;;16.31;84.25;100161.47;5002298;28;20235;-83
2023/07/05 00:57:15;;;;;;;5.80;5.20;;;;;;;16.32;84.83;100160.47;5008838;28;20197;-82
2023/07/05 00:59:46;;;;;;;6.30;4.67;;;;;;;16.32;85.08;100147.91;5004505;28;20209;-83
2023/07/05 01:02:14;;;;;;;8.60;5.67;;;;;;;16.36;85.45;100144.91;5003360;28;20275;-83
2023/07/05 01:04:41;;;;;;;9.73;4.90;;;;;;;16.33;84.92;100144.22;5001252;28;20652;-82
2023/07/05 01:07:07;;;;;;;8.40;5.10;;;;;;;16.34;84.99;100139.69;5001936;28;20208;-83
2023/07/05 01:09:34;;;;;;;10.37;5.30;;;;;;;16.35;84.79;100145.91;5005325;28;20221;-82
2023/07/05 01:12:13;;;;;;;9.77;5.00;;;;;;;16.33;84.96;100132.63;5004595;28;20311;-82
2023/07/05 01:14:48;;;;;;;7.53;5.00;;;;;;;16.33;85.30;100133.47;5000589;28;20228;-82
2023/07/05 01:17:20;;;;;;;6.20;5.13;;;;;;;16.34;85.14;100123.56;5005827;28;20759;-82
2023/07/05 01:20:10;;;;;;;6.97;4.67;;;;;;;16.33;84.89;100122.72;5003249;28;20207;-83
2023/07/05 01:23:11;;;;;;;5.30;4.33;;;;;;;16.30;84.64;100112.25;5008429;28;20205;-83
2023/07/05 01:26:01;;;;;;;7.47;4.60;;;;;;;16.28;84.38;100108.91;4975124;28;20638;-82
2023/07/05 01:28:46;;;;;;;7.87;4.90;;;;;;;16.26;84.10;100101.97;5008223;28;20210;-82
2023/07/05 01:31:43;;;;;;;7.13;4.47;;;;;;;16.25;83.83;100094.91;5007344;28;20218;-82
2023/07/05 01:34:18;;;;;;;5.83;4.70;;;;;;;16.21;83.71;100080.06;4997427;28;20240;-82
2023/07/05 01:36:45;;;;;;;7.40;4.37;;;;;;;16.17;83.80;100074.13;5011834;28;20198;-82
2023/07/05 01:39:11;;;;;;;7.17;5.03;;;;;;;16.14;83.70;100063.66;5003023;28;20216;-82
2023/07/05 01:41:38;;;;;;;6.33;4.40;;;;;;;16.12;83.79;100064.84;5010792;28;20228;-82
2023/07/05 01:44:05;;;;;;;7.70;4.80;;;;;;;16.10;83.48;100072.19;5005192;28;20692;-82
2023/07/05 01:46:36;;;;;;;8.20;4.63;;;;;;;16.04;83.24;100060.19;4990741;22;20251;-72
2023/07/05 01:49:22;;;;;;;8.43;5.20;;;;;;;16.01;83.51;100051.56;4938995;29;20232;-72
2023/07/05 01:51:56;;;;;;;11.60;5.27;;;;;;;15.98;83.90;100048.19;4930548;29;20225;-72
2023/07/05 01:54:30;;;;;;;7.87;4.87;;;;;;;15.98;84.25;100048.19;4930247;29;20579;-70
2023/07/05 01:57:01;;;;;;;6.27;4.93;;;;;;;15.97;84.13;100051.84;4928026;29;20261;-71
2023/07/05 01:59:33;;;;;;;7.30;4.70;;;;;;;15.95;83.82;100045.78;4929873;29;20611;-71
2023/07/05 02:02:01;;;;;;;7.13;4.73;;;;;;;15.94;83.77;100038.72;4930401;29;20742;-71
2023/07/05 02:04:32;;;;;;;6.87;5.23;;;;;;;15.95;84.03;100043.09;4930122;29;20702;-72
2023/07/05 02:06:58;;;;;;;6.10;4.73;;;;;;;15.95;84.07;100040.41;4927927;29;20284;-71
2023/07/05 02:09:25;;;;;;;8.07;5.53;;;;;;;15.94;83.91;100038.72;4930266;29;20698;-72
2023/07/05 02:11:51;;;;;;;7.00;5.43;;;;;;;15.96;84.01;100028.66;4927243;29;20241;-73
2023/07/05 02:14:17;;;;;;;7.07;5.50;;;;;;;15.98;83.79;100036.59;4929009;29;20477;-72
2023/07/05 02:16:44;;;;;;;8.73;5.27;;;;;;;15.99;83.77;100038.28;4926395;29;20205;-72
2023/07/05 02:19:11;;;;;;;8.50;4.93;;;;;;;16.01;83.89;100028.25;4926275;29;20217;-72
2023/07/05 02:21:38;;;;;;;7.93;5.17;;;;;;;16.04;83.58;100017.22;4931476;29;20659;-72
2023/07/05 02:24:05;;;;;;;6.07;4.67;;;;;;;16.02;83.43;100007.59;4930107;29;20673;-72
2023/07/05 02:26:33;;;;;;;7.60;4.97;;;;;;;16.01;83.33;100009.44;4928794;29;20218;-72
2023/07/05 02:29:00;;;;;;;9.80;5.57;;;;;;;16.02;83.53;100004.91;4927136;29;20694;-71
2023/07/05 02:31:27;;;;;;;6.33;5.07;;;;;;;16.02;83.80;100003.06;4929075;29;20208;-72
2023/07/05 02:33:53;;;;;;;8.80;5.90;;;;;;;16.03;84.26;100009.28;4930965;29;20221;-71
2023/07/05 02:36:19;;;;;;;7.70;4.80;;;;;;;16.05;84.81;100005.47;4930415;29;20685;-71
2023/07/05 02:38:47;;;;;;;8.27;5.30;;;;;;;16.05;84.74;99994.72;4931686;29;20210;-73
2023/07/05 02:41:14;;;;;;;7.03;5.30;;;;;;;16.04;84.58;99992.19;4925453;29;20702;-71
2023/07/05 02:43:41;;;;;;;6.83;5.27;;;;;;;16.03;85.15;99985.13;4931513;29;20226;-73
2023/07/05 02:46:07;;;;;;;7.60;5.63;;;;;;;16.02;85.34;99978.06;4928694;29;20223;-72
2023/07/05 02:48:34;;;;;;;8.13;6.03;;;;;;;16.03;85.83;99975.22;4928950;29;20215;-72
2023/07/05 02:51:00;;;;;;;12.83;5.90;;;;;;;16.02;85.87;99970.84;4927941;29;20673;-72
2023/07/05 02:53:27;;;;;;;6.73;5.83;;;;;;;15.99;86.09;99963.06;4930511;29;20243;-72
2023/07/05 02:55:56;;;;;;;7.90;5.53;;;;;;;15.94;86.48;99958.16;4936198;29;20718;-72
2023/07/05 02:58:22;;;;;;;7.67;5.70;;;;;;;15.91;86.93;99942.34;4925692;29;20212;-71
2023/07/05 03:00:49;;;;;;;8.27;5.67;;;;;;;15.88;87.72;99944.47;4927303;29;20215;-72
2023/07/05 03:03:15;;;;;;;11.43;6.37;;;;;;;15.87;88.19;99932.06;4929333;29;20243;-73
2023/07/05 03:05:42;;;;;;;8.40;6.17;;;;;;;15.83;88.65;99926.13;4926858;29;20223;-72
2023/07/05 03:08:09;;;;;;;6.27;5.43;;;;;;;15.80;89.11;99915.69;4928747;29;20212;-72
2023/07/05 03:10:39;;;;;;;8.50;5.43;;;;;;;15.79;89.67;99905.09;4929176;29;20461;-71
2023/07/05 03:13:07;;;;;;;7.87;5.37;;;;;;;15.77;89.92;99905.22;4928753;29;20470;-72
2023/07/05 03:15:33;;;;;;;8.93;6.13;;;;;;;15.75;90.21;99914.44;4927474;29;20665;-72
2023/07/05 03:18:00;;;;;;;7.43;6.07;;;;;;;15.74;90.72;99900.19;4927045;29;20231;-72
2023/07/05 03:20:26;;;;;;;9.13;6.27;;;;;;;15.75;91.24;99906.41;4931764;29;20633;-72
2023/07/05 03:22:52;;;;;;;7.73;6.20;;;;;;;15.77;91.78;99899.00;4927399;29;20266;-72
2023/07/05 03:25:19;;;;;;;9.50;7.03;;;;;;;15.79;92.26;99895.19;4931517;29;20457;-72
2023/07/05 03:27:45;;;;;;;8.80;5.93;;;;;;;15.80;92.35;99891.50;4925824;29;20211;-72
2023/07/05 03:30:14;;;;;;;7.03;6.27;;;;;;;15.79;91.92;99881.75;4922876;29;20206;-72
2023/07/05 03:32:43;;;;;;;9.83;7.10;;;;;;;15.75;91.50;99880.41;4928618;29;20225;-72
2023/07/05 03:35:09;;;;;;;9.10;6.50;;;;;;;15.75;91.34;99876.88;4927013;29;20870;-72
2023/07/05 03:37:36;;;;;;;9.47;6.40;;;;;;;15.76;91.69;99862.44;4923662;29;20217;-72
2023/07/05 03:40:02;;;;;;;9.93;6.93;;;;;;;15.76;91.42;99855.25;4928358;29;20524;-73
2023/07/05 03:42:29;;;;;;;13.77;7.10;;;;;;;15.76;91.09;99865.97;4930146;29;20231;-73
2023/07/05 03:44:55;;;;;;;9.80;7.27;;;;;;;15.76;91.03;99863.28;4928374;29;20218;-73
2023/07/05 03:47:23;;;;;;;9.70;6.83;;;;;;;15.76;90.65;99857.94;4927179;29;20605;-71
2023/07/05 03:49:49;;;;;;;15.20;7.87;;;;;;;15.75;90.27;99852.69;4929876;29;20216;-72
2023/07/05 03:52:16;;;;;;;11.77;8.63;;;;;;;15.74;89.90;99853.69;4929183;29;20623;-73
2023/07/05 03:54:42;;;;;;;9.73;7.73;;;;;;;15.73;89.47;99854.69;4927294;29;20218;-72
2023/07/05 03:57:09;;;;;;;9.60;7.20;;;;;;;15.73;89.04;99839.44;4927754;29;20221;-70
2023/07/05 03:59:35;;;;;;;10.37;7.80;;;;;;;15.75;89.05;99848.19;4928535;29;20229;-72
2023/07/05 04:02:02;;;;;;;9.33;7.67;;;;;;;15.78;89.09;99847.84;4920201;29;20226;-72
2023/07/05 04:04:29;;;;;;;9.47;7.97;;;;;;;15.82;88.71;99845.72;4924145;29;20702;-72
2023/07/05 04:06:56;;;;;;;9.73;7.17;;;;;;;15.84;87.92;99841.91;4927746;29;20610;-73
2023/07/05 04:09:22;;;;;;;9.83;7.33;;;;;;;15.87;87.09;99840.75;4928777;29;20235;-72
2023/07/05 04:11:49;;;;;;;11.40;7.10;;;;;;;15.90;85.13;99835.94;4929707;29;20237;-72
2023/07/05 04:14:15;;;;;;;9.17;7.00;;;;;;;15.94;83.75;99839.97;4927176;29;20223;-73
2023/07/05 04:16:42;;;;;;;11.03;7.30;;;;;;;16.01;82.95;99832.19;4923126;29;20213;-73
2023/07/05 04:19:09;;;;;;;10.10;6.50;;;;;;;16.05;82.13;99827.34;4925970;29;20218;-73
2023/07/05 04:21:37;;;;;;;12.47;6.47;;;;;;;16.10;81.08;99830.44;4925812;29;20214;-73
2023/07/05 04:24:04;;;;;;;10.77;6.97;;;;;;;16.15;80.14;99836.16;4923762;29;21303;-71
2023/07/05 04:26:31;;;;;;;7.80;5.80;;;;;;;16.23;78.26;99836.28;4923826;29;20213;-72
2023/07/05 04:28:57;;;;;;;9.67;6.70;;;;;;;16.29;77.49;99835.66;4921003;29;20230;-72
2023/07/05 04:31:27;;;;;;;8.13;6.70;;;;;;;16.34;76.54;99833.34;4922513;29;20653;-72
2023/07/05 04:33:54;;;;;;;6.93;6.23;;;;;;;16.42;76.10;99830.75;4926349;29;20227;-72
2023/07/05 04:36:20;;;;;;;7.37;6.33;;;;;;;16.46;76.00;99837.50;4928595;29;20209;-72
2023/07/05 04:38:48;;;;;;;8.90;6.97;;;;;;;16.51;75.85;99835.16;4926339;29;20452;-72
2023/07/05 04:41:14;;;;;;;11.50;7.10;;;;;;;16.56;76.16;99832.88;4926596;29;20713;-73
2023/07/05 04:43:41;;;;;;;6.90;6.17;;;;;;;16.57;76.81;99839.09;4926980;28;20238;-73
2023/07/05 04:46:07;;;;;;;7.53;6.10;;;;;;;16.57;77.63;99826.50;4926112;29;21613;-72
2023/07/05 04:48:34;;;;;;;8.33;6.37;;;;;;;16.58;78.35;99820.13;4923379;29;20234;-72
2023/07/05 04:51:00;;;;;;;10.07;7.13;;;;;;;16.58;79.45;99809.38;4926779;29;20622;-72
2023/07/05 04:53:28;;;;;;;8.17;6.50;;;;;;;16.55;80.34;99804.31;4923951;29;20649;-72
2023/07/05 04:55:58;;;;;;;7.80;6.00;;;;;;;16.50;81.14;99800.38;4923936;29;20210;-72
2023/07/05 04:58:25;;;;;;;8.00;5.87;;;;;;;16.44;81.85;99793.81;4926861;29;20207;-72
2023/07/05 05:00:52;;;;;;;8.90;6.93;;;;;;;16.38;82.55;99789.03;4929142;29;21033;-73
2023/07/05 05:03:21;;;;;;;8.23;6.90;;;;;;;16.35;83.26;99792.03;4926392;29;20231;-72
2023/07/05 05:05:49;;;;;;;11.17;6.87;;;;;;;16.32;84.00;99784.28;4924729;29;20219;-72
2023/07/05 05:08:16;;;;;;;9.00;6.40;;;;;;;16.30;84.53;99792.50;4927004;29;20210;-72
2023/07/05 05:10:42;;;;;;;10.90;5.83;;;;;;;16.28;84.93;99778.41;4924431;29;20213;-73
2023/07/05 05:13:10;;;;;;;7.83;6.07;;;;;;;16.27;85.57;99779.41;4925976;29;20239;-72
2023/07/05 05:15:37;;;;;;;6.47;5.50;;;;;;;16.31;86.51;99779.91;4924358;29;20210;-72
2023/07/05 05:18:04;;;;;;;7.17;6.00;;;;;;;16.33;86.74;99792.19;4916997;29;20688;-73
2023/07/05 05:20:31;;;;;;;5.70;4.70;;;;;;;16.39;86.93;99781.81;4926594;29;20644;-73
2023/07/05 05:22:58;;;;;;;6.37;5.43;;;;;;;16.42;87.38;99779.69;4920237;29;20243;-73
2023/07/05 05:25:24;;;;;;;6.33;4.50;;;;;;;16.47;87.88;99800.72;4923741;29;20610;-73
2023/07/05 05:27:51;;;;;;;6.27;4.83;;;;;;;16.49;88.43;99788.78;4929024;29;20215;-73
2023/07/05 05:30:20;;;;;;;4.90;4.33;;;;;;;16.53;88.79;99806.31;4924363;29;20205;-73
2023/07/05 05:32:46;;;;;;;4.60;3.97;;;;;;;16.57;89.43;99807.69;4923173;29;20231;-70
2023/07/05 05:35:13;;;;;;;4.63;4.13;;;;;;;16.63;89.88;99814.31;4924206;29;20233;-72
2023/07/05 05:37:40;;;;;;;6.10;3.80;;;;;;;16.65;90.40;99815.88;4923629;29;20205;-72
2023/07/05 05:40:08;;;;;;;5.90;4.37;;;;;;;16.71;90.94;99826.97;4926812;29;20773;-73
2023/07/05 05:42:34;;;;;;;6.50;4.47;;;;;;;16.76;91.33;99825.50;4925978;29;20240;-72
2023/07/05 05:45:01;;;;;;;5.33;3.83;;;;;;;16.77;91.53;99845.19;4925277;29;20226;-70
2023/07/05 05:47:29;;;;;;;6.53;3.83;;;;;;;16.80;91.70;99869.91;4926806;29;20227;-72
2023/07/05 05:49:55;;;;;;;5.57;3.83;;;;;;;16.83;91.87;99876.84;4925469;29;20697;-73
2023/07/05 05:52:21;;;;;;;7.53;4.70;;;;;;;16.83;91.82;99898.34;4925085;29;20228;-73
2023/07/05 05:54:48;;;;;;;9.17;5.30;;;;;;;16.80;91.78;99894.13;4924720;29;20209;-72
2023/07/05 05:57:14;;;;;;;8.57;5.33;;;;;;;16.78;91.87;99874.59;4926182;29;20486;-72
2023/07/05 05:59:41;;;;;;;4.20;3.40;;;;;;;16.78;92.51;99865.69;4922924;29;20226;-72
2023/07/05 06:02:09;;;;;;;4.47;3.73;;;;;;;16.76;93.27;99838.94;4922245;29;20237;-72
2023/07/05 06:04:37;;;;;;;4.37;3.10;;;;;;;16.75;94.04;99814.91;4927325;29;20756;-73
2023/07/05 06:07:03;;;;;;;4.70;3.10;;;;;;;16.74;94.85;99827.50;4920736;29;20215;-72
2023/07/05 06:09:30;;;;;;;4.47;3.83;;;;;;;16.76;95.55;99835.41;4927101;29;20210;-73
2023/07/05 06:11:56;;;;;;;4.83;3.90;;;;;;;16.76;96.40;99830.88;4927917;29;21261;-73
2023/07/05 06:14:24;;;;;;;5.80;4.13;;;;;;;16.78;97.08;99815.44;4924415;29;20204;-72
2023/07/05 06:16:50;;;;;;;6.03;3.87;;;;;;;16.77;97.59;99797.63;4928249;29;20217;-73
2023/07/05 06:19:17;;;;;;;5.43;4.13;;;;;;;16.73;97.96;99781.94;4923998;29;20219;-70
2023/07/05 06:21:44;;;;;;;6.83;4.90;;;;;;;16.70;98.33;99801.06;4928253;29;20237;-72
2023/07/05 06:24:11;;;;;;;5.47;4.97;;;;;;;16.67;98.78;99792.31;4929429;29;20234;-72
2023/07/05 06:26:38;;;;;;;6.50;5.00;;;;;;;16.65;99.26;99804.25;4928926;29;20227;-73
2023/07/05 06:29:04;;;;;;;6.23;4.70;;;;;;;16.66;99.92;99795.16;4925390;29;20219;-72
2023/07/05 06:31:33;;;;;;;7.00;4.50;;;;;;;16.66;100.00;99792.47;4924290;29;20219;-73
2023/07/05 06:33:59;;;;;;;5.50;4.17;;;;;;;16.65;100.00;99805.09;4916187;29;20299;-72
2023/07/05 06:36:26;;;;;;;5.13;4.00;;;;;;;16.67;100.00;99813.84;4928946;29;20224;-72
2023/07/05 06:38:54;;;;;;;4.87;3.20;;;;;;;16.71;100.00;99808.16;4931293;29;20220;-72
2023/07/05 06:41:20;;;;;;;4.27;3.07;;;;;;;16.72;100.00;99793.69;4923654;29;20707;-73
2023/07/05 06:43:47;;;;;;;5.53;2.50;;;;;;;16.78;100.00;99771.56;4931737;29;20233;-72
2023/07/05 06:46:13;;;;;;;4.03;2.87;;;;;;;16.79;100.00;99776.78;4926926;29;20225;-72
2023/07/05 06:48:40;;;;;;;3.73;2.70;;;;;;;16.83;100.00;99786.25;4931384;29;20219;-72
2023/07/05 06:51:06;;;;;;;3.67;2.73;;;;;;;16.87;100.00;99779.53;4930095;29;20214;-73
2023/07/05 06:53:33;;;;;;;3.27;2.90;;;;;;;16.92;100.00;99784.44;4931524;29;20228;-73
2023/07/05 06:56:02;;;;;;;3.33;2.70;;;;;;;16.96;100.00;99801.94;4927776;29;21183;-73
2023/07/05 06:58:28;;;;;;;3.33;2.93;;;;;;;17.02;100.00;99809.38;4929842;29;20675;-72
2023/07/05 07:00:54;;;;;;;3.50;2.60;;;;;;;17.05;100.00;99805.50;4924730;29;20711;-71
2023/07/05 07:03:21;;;;;;;3.93;2.30;;;;;;;17.11;100.00;99818.34;4927686;29;20234;-72
2023/07/05 07:05:52;;;;;;;3.37;2.47;;;;;;;17.18;100.00;99816.72;4926871;29;20210;-72
2023/07/05 07:08:19;;;;;;;3.00;2.50;;;;;;;17.29;100.00;99829.88;4929291;29;20214;-72
2023/07/05 07:10:45;;;;;;;3.33;1.90;;;;;;;17.33;100.00;99832.09;4929512;29;20209;-72
2023/07/05 07:13:14;;;;;;;3.77;2.37;;;;;;;17.42;100.00;99834.81;4930351;29;20743;-73
2023/07/05 07:15:41;;;;;;;3.13;2.10;;;;;;;17.43;100.00;99836.50;4927974;29;20226;-72
2023/07/05 07:18:07;;;;;;;2.33;1.63;;;;;;;17.50;100.00;99848.34;4925557;29;20564;-73
2023/07/05 07:20:34;;;;;;;2.27;1.80;;;;;;;17.51;100.00;99848.19;4926706;29;20218;-73
2023/07/05 07:23:01;;;;;;;3.30;1.80;;;;;;;17.53;100.00;99856.94;4926322;29;20242;-73
2023/07/05 07:25:28;;;;;;;2.53;1.40;;;;;;;17.54;99.64;99847.84;4925188;29;20214;-74
2023/07/05 07:27:54;;;;;;;2.07;1.70;;;;;;;17.64;99.81;99851.28;4925085;29;20687;-72
2023/07/05 07:30:22;;;;;;;1.70;1.60;;;;;;;17.77;99.25;99858.06;4927561;29;20207;-74
2023/07/05 07:32:49;;;;;;;2.30;1.40;;;;;;;17.88;98.36;99853.25;4925298;29;20238;-73
2023/07/05 07:35:15;;;;;;;1.67;1.30;;;;;;;17.99;96.86;99862.88;4930861;29;20203;-72
2023/07/05 07:37:42;;;;;;;2.93;1.57;;;;;;;18.07;95.18;99864.75;4930890;29;20223;-72
2023/07/05 07:40:09;;;;;;;2.20;1.73;;;;;;;18.10;94.03;99861.69;4926311;29;20208;-73
2023/07/05 07:42:35;;;;;;;2.33;1.30;;;;;;;18.20;93.83;99868.66;4923748;29;20240;-72
2023/07/05 07:45:02;;;;;;;3.53;1.43;;;;;;;18.29;92.37;99870.34;4922755;29;20259;-73
2023/07/05 07:47:30;;;;;;;2.80;1.53;;;;;;;18.43;92.17;99874.25;4926576;29;20231;-72
2023/07/05 07:49:56;;;;;;;2.07;1.47;;;;;;;18.61;92.40;99874.16;4928530;29;20216;-72
2023/07/05 07:52:23;;;;;;;2.07;1.60;;;;;;;18.75;90.40;99881.56;4926532;29;20244;-73
2023/07/05 07:54:49;;;;;;;1.73;1.47;;;;;;;18.75;85.47;99899.59;4924973;29;20201;-73
2023/07/05 07:57:15;;;;;;;2.67;1.37;;;;;;;18.74;84.06;99901.47;4928688;29;20220;-72
2023/07/05 07:59:42;;;;;;;2.63;2.07;;;;;;;18.67;83.00;99909.38;4924006;29;20220;-73
2023/07/05 08:02:12;;;;;;;2.10;1.83;;;;;;;18.58;79.67;99901.41;4924285;29;20680;-73
2023/07/05 08:04:43;;;;;;;2.73;1.80;;;;;;;18.42;76.81;99898.69;4923184;29;20240;-73
2023/07/05 08:07:10;;;;;;;3.03;2.03;;;;;;;18.24;74.17;99898.81;4920021;29;20297;-73
2023/07/05 08:09:37;;;;;;;3.33;2.40;;;;;;;18.26;73.68;99902.19;4922692;29;20218;-74
2023/07/05 08:12:04;;;;;;;2.40;1.90;;;;;;;18.28;72.49;99900.16;4923207;29;20235;-74
2023/07/05 08:14:30;;;;;;;3.10;1.93;;;;;;;18.33;71.67;99911.28;4922212;29;20630;-73
2023/07/05 08:16:57;;;;;;;2.40;2.17;;;;;;;18.41;69.47;99908.63;4917468;29;20707;-73
2023/07/05 08:19:23;;;;;;;2.27;1.63;;;;;;;18.49;68.66;99907.78;4920889;29;20752;-73
2023/07/05 08:21:51;;;;;;;5.63;2.20;;;;;;;18.63;68.12;99918.78;4922997;29;20228;-72
2023/07/05 08:24:18;;;;;;;2.40;1.67;;;;;;;18.79;67.77;99918.00;4925142;29;20234;-73
2023/07/05 08:26:45;;;;;;;2.97;1.87;;;;;;;18.95;67.26;99925.25;4923436;29;20216;-72
2023/07/05 08:29:12;;;;;;;1.83;1.70;;;;;;;19.13;66.49;99930.47;4922039;29;20323;-72
2023/07/05 08:31:38;;;;;;;1.70;1.60;;;;;;;19.23;63.64;99939.22;4921263;29;20216;-73
2023/07/05 08:34:04;;;;;;;4.70;2.00;;;;;;;19.32;63.03;99947.16;4920128;29;20343;-73
2023/07/05 08:36:34;;;;;;;3.93;1.83;;;;;;;19.45;62.41;99935.00;4923234;29;20280;-73
2023/07/05 08:39:05;;;;;;;2.90;1.83;;;;;;;19.60;62.23;99949.50;4925542;29;20299;-73
2023/07/05 08:41:44;;;;;;;2.97;1.77;;;;;;;19.74;60.65;99938.81;4919207;29;20687;-73
2023/07/05 08:44:20;;;;;;;2.73;1.80;;;;;;;19.84;60.21;99952.16;4922095;29;20632;-73
2023/07/05 08:46:50;;;;;;;2.43;1.60;;;;;;;19.85;59.62;99948.44;4923492;29;20231;-73
2023/07/05 08:49:30;;;;;;;2.40;1.80;;;;;;;19.79;58.03;99949.13;4923616;29;20722;-74
2023/07/05 08:51:57;;;;;;;2.00;1.70;;;;;;;19.83;58.73;99958.56;4924935;29;20240;-73
2023/07/05 08:54:31;;;;;;;2.83;2.00;;;;;;;19.94;59.50;99955.50;4920733;29;20639;-73
2023/07/05 08:57:04;;;;;;;2.30;1.60;;;;;;;20.02;57.66;99952.78;4921991;29;20219;-73
2023/07/05 08:59:36;;;;;;;2.87;1.90;;;;;;;20.19;58.16;99960.81;4924275;29;20211;-73
2023/07/05 09:02:03;;;;;;;3.23;1.80;;;;;;;20.29;57.44;99974.94;4922008;29;20233;-74
2023/07/05 09:04:32;;;;;;;2.33;1.80;;;;;;;20.30;56.31;99966.66;4919344;29;20736;-74
2023/07/05 09:07:08;;;;;;;2.13;1.80;;;;;;;20.23;55.94;99981.06;4926134;29;20422;-74
2023/07/05 09:09:50;;;;;;;3.13;2.00;;;;;;;20.31;56.42;99992.69;4925079;29;20220;-73
2023/07/05 09:12:22;;;;;;;3.08;1.67;;;;;;;20.34;55.19;99996.91;4920459;29;20254;-73
2023/07/05 09:15:02;;;;;;;3.10;1.97;;;;;;;20.29;54.68;99993.88;4923237;29;20215;-74
2023/07/05 09:17:35;;;;;;;3.03;1.67;;;;;;;20.30;54.66;99990.16;4921732;29;20212;-74
2023/07/05 09:20:14;;;;;;;2.83;1.73;;;;;;;20.33;53.15;99987.09;4923471;29;20203;-74
2023/07/05 09:22:42;;;;;;;3.37;1.70;;;;;;;20.38;52.45;99988.31;4920611;29;20241;-72
2023/07/05 09:25:14;;;;;;;2.73;1.57;;;;;;;20.46;51.82;100006.34;4924328;29;20240;-74
2023/07/05 09:27:49;;;;;;;2.42;1.92;;;;;;;20.45;50.99;100004.66;4915748;29;20212;-73
2023/07/05 09:30:24;;;;;;;3.08;2.10;;;;;;;20.43;50.07;99998.56;4925182;29;20216;-73
2023/07/05 09:33:00;;;;;;;5.55;1.80;;;;;;;20.51;51.02;99998.53;4921206;29;20369;-72
2023/07/05 09:35:31;;;;;;;2.70;1.57;;;;;;;20.64;49.89;100012.34;4915488;29;20219;-74
2023/07/05 09:38:04;;;;;;;2.17;1.70;;;;;;;20.70;48.93;100003.53;4917164;29;20245;-74
2023/07/05 09:40:36;;;;;;;2.08;1.70;;;;;;;20.83;48.28;100012.91;4915502;29;20212;-74
2023/07/05 09:43:07;;;;;;;2.63;1.30;;;;;;;20.93;47.20;100019.78;4909576;29;20237;-74
2023/07/05 09:45:33;;;;;;;3.95;1.40;;;;;;;20.97;45.46;100014.84;4920188;29;20240;-74
2023/07/05 09:48:02;;;;;;;3.53;1.33;;;;;;;20.96;45.37;100010.47;4920445;29;20213;-73
2023/07/05 09:50:30;;;;;;;3.13;1.73;;;;;;;21.04;45.73;100019.38;4920005;29;20683;-74
2023/07/05 09:53:00;;;;;;;1.70;1.50;;;;;;;21.15;44.21;100012.69;4917904;29;20819;-73
2023/07/05 09:55:27;;;;;;;2.22;1.42;;;;;;;21.25;45.84;100021.47;4922522;29;20201;-73
2023/07/05 09:57:55;;;;;;;1.70;1.30;;;;;;;21.30;44.82;100012.78;4928632;29;20589;-73
2023/07/05 10:00:25;;;;;;;2.72;1.30;;;;;;;21.23;43.01;100025.38;4924787;29;20209;-74
2023/07/05 10:02:54;;;;;;;2.33;1.10;;;;;;;21.15;43.41;100024.34;4932781;29;20224;-73
2023/07/05 10:05:27;;;;;;;1.88;1.25;;;;;;;21.17;44.49;100029.59;4923004;29;20236;-73
2023/07/05 10:07:56;;;;;;;2.03;1.10;;;;;;;21.14;44.73;100038.06;4922669;29;20209;-72
2023/07/05 10:10:27;;;;;;;1.75;1.05;;;;;;;21.15;44.93;100050.59;4919199;29;20313;-73
2023/07/05 10:13:03;;;;;;;1.58;1.20;;;;;;;21.15;44.73;100048.72;4926080;29;20233;-73
2023/07/05 10:15:31;;;;;;;1.30;1.15;;;;;;;21.01;44.13;100046.78;4926878;29;20706;-74
2023/07/05 10:17:58;;;;;;;4.03;1.48;;;;;;;20.93;44.95;100067.69;4930017;29;20241;-73
2023/07/05 10:20:26;;;;;;;1.42;1.10;;;;;;;20.90;45.29;100062.63;4930752;29;20260;-73
2023/07/05 10:23:01;;;;;;;2.65;1.50;;;;;;;20.90;45.32;100079.69;4930936;29;20233;-73
2023/07/05 10:25:33;;;;;;;1.95;1.30;;;;;;;20.93;44.85;100062.25;4930105;29;20232;-73
2023/07/05 10:28:03;;;;;;;1.52;1.00;;;;;;;20.95;44.32;100080.03;4927955;29;20300;-74
2023/07/05 10:30:30;;;;;;;2.83;1.20;;;;;;;20.90;43.84;100079.69;4932755;29;20224;-73
2023/07/05 10:33:14;;;;;;;1.73;0.98;;;;;;;20.89;44.06;100066.34;4929298;29;20726;-73
2023/07/05 10:35:46;;;;;;;1.50;1.20;;;;;;;20.97;44.85;100075.25;4930298;29;20208;-73
2023/07/05 10:38:20;;;;;;;3.78;1.50;;;;;;;21.02;44.81;100067.44;4928552;29;20236;-73
2023/07/05 10:40:47;;;;;;;2.40;1.17;;;;;;;21.00;44.50;100074.03;4932309;29;20231;-73
2023/07/05 10:43:15;;;;;;;2.38;1.40;;;;;;;20.99;44.93;100067.78;4931241;29;20272;-73
2023/07/05 10:45:41;;;;;;;2.20;1.15;;;;;;;21.01;45.28;100086.56;4927542;29;20225;-74
2023/07/05 10:48:22;;;;;;;2.13;1.25;;;;;;;20.97;45.24;100077.09;4929997;29;20210;-74
2023/07/05 10:50:49;;;;;;;2.83;1.27;;;;;;;20.94;45.96;100089.16;4925764;29;20311;-73
2023/07/05 10:53:18;;;;;;;1.83;1.40;;;;;;;20.88;45.22;100097.97;4929661;29;20239;-76
2023/07/05 10:55:52;;;;;;;2.00;1.33;;;;;;;20.85;45.25;100111.84;4933132;29;20209;-75
2023/07/05 10:58:23;;;;;;;2.00;1.08;;;;;;;20.78;45.24;100103.59;4927502;29;20205;-74
2023/07/05 11:00:53;;;;;;;1.98;1.25;;;;;;;20.75;45.95;100109.38;4928181;29;20567;-75
2023/07/05 11:03:25;;;;;;;3.47;1.10;;;;;;;20.75;46.08;100108.53;4926688;29;20236;-74
2023/07/05 11:05:55;;;;;;;1.77;1.20;;;;;;;20.79;46.69;100121.50;4934613;29;20634;-74
2023/07/05 11:08:31;;;;;;;3.20;1.10;;;;;;;20.85;46.35;100127.25;4930140;29;20210;-73
2023/07/05 11:11:01;;;;;;;1.73;1.23;;;;;;;20.88;46.24;100102.53;4935554;29;20205;-74
2023/07/05 11:13:30;;;;;;;2.67;1.07;;;;;;;20.95;46.33;100114.38;4932540;29;20599;-74
2023/07/05 11:15:57;;;;;;;1.23;0.98;;;;;;;21.03;47.08;100107.03;4930857;29;20244;-74
2023/07/05 11:18:25;;;;;;;3.08;1.23;;;;;;;21.10;47.02;100101.75;4927679;29;20228;-73
2023/07/05 11:20:54;;;;;;;2.10;1.10;;;;;;;21.19;46.90;100106.09;4928504;29;20218;-74
2023/07/05 11:23:56;;;;;;;1.38;0.90;;;;;;;21.21;45.92;100109.50;4923738;29;20240;-75
2023/07/05 11:26:35;;;;;;;0.98;0.88;;;;;;;21.21;45.61;100120.31;4924946;29;20226;-75
2023/07/05 11:29:51;;;;;;;4.22;1.35;;;;;;;21.22;45.24;100116.59;4927459;29;20613;-75
2023/07/05 11:32:18;;;;;;;2.25;1.38;;;;;;;21.27;45.56;100116.06;4926877;29;20330;-75
2023/07/05 11:34:53;;;;;;;1.55;0.98;;;;;;;21.26;45.45;100133.34;4926138;29;20204;-75
2023/07/05 11:37:51;;;;;;;2.42;0.80;;;;;;;21.30;46.06;100140.94;4923294;29;20205;-77